Time;durP1;ratioP1;P1;durP2;ratioP2;P2;SDS_P1;SDS_P2;PMS_P1;PMS_P2;Temp;Humidity;BMP_temperature;BMP_pressure;BME280_temperature;BME280_humidity;BME280_pressure;Samples;Min_cycle;Max_cycle;Signal;HPM_P1;HPM_P2
2021/01/24 00:00:54;;;;;;;13.43;9.60;;;;;;;;;;5047027;28;20243;-68
2021/01/24 00:03:21;;;;;;;12.03;8.30;;;;;;;;;;5043789;28;20601;-67
2021/01/24 00:05:46;;;;;;;12.53;9.10;;;;;;;;;;5048377;28;20182;-68
2021/01/24 00:08:11;;;;;;;15.90;9.27;;;;;;;;;;5049601;28;20185;-68
2021/01/24 00:10:37;;;;;;;14.40;9.33;;;;;;;;;;5049659;28;20189;-68
2021/01/24 00:13:02;;;;;;;13.10;9.07;;;;;;;;;;5041491;28;20193;-67
2021/01/24 00:15:27;;;;;;;13.30;9.13;;;;;;;;;;5023652;28;20181;-67
2021/01/24 00:17:53;;;;;;;15.07;9.73;;;;;;;;;;5016213;28;20185;-67
2021/01/24 00:20:18;;;;;;;13.77;8.50;;;;;;;;;;5024940;28;20235;-67
2021/01/24 00:22:43;;;;;;;13.90;8.57;;;;;;;;;;5029393;28;20190;-67
2021/01/24 00:25:08;;;;;;;14.60;8.20;;;;;;;;;;5028879;28;20265;-68
2021/01/24 00:27:34;;;;;;;11.93;8.60;;;;;;;;;;5040908;28;20254;-68
2021/01/24 00:29:59;;;;;;;12.70;8.27;;;;;;;;;;5026794;28;20183;-68
2021/01/24 00:32:24;;;;;;;12.37;7.90;;;;;;;;;;5032100;28;20190;-69
2021/01/24 00:34:49;;;;;;;17.10;8.80;;;;;;;;;;5026283;28;20209;-67
2021/01/24 00:37:14;;;;;;;13.27;9.40;;;;;;;;;;5028161;28;20193;-67
2021/01/24 00:39:40;;;;;;;13.13;8.13;;;;;;;;;;5030310;28;20185;-68
2021/01/24 00:42:05;;;;;;;12.23;8.50;;;;;;;;;;5032323;28;20214;-68
2021/01/24 00:44:31;;;;;;;11.47;8.13;;;;;;;;;;5009174;28;21188;-68
2021/01/24 00:46:56;;;;;;;10.47;7.40;;;;;;;;;;5031015;28;20213;-67
2021/01/24 00:49:21;;;;;;;13.77;8.07;;;;;;;;;;5022036;28;22002;-69
2021/01/24 00:51:46;;;;;;;10.80;7.97;;;;;;;;;;5050930;28;20192;-69
2021/01/24 00:54:11;;;;;;;12.30;7.13;;;;;;;;;;5041793;28;20331;-66
2021/01/24 00:56:36;;;;;;;12.77;7.23;;;;;;;;;;5046800;28;20251;-68
2021/01/24 00:59:02;;;;;;;12.03;7.70;;;;;;;;;;5047973;28;20196;-67
2021/01/24 01:01:27;;;;;;;11.83;8.17;;;;;;;;;;5054159;28;20209;-68
2021/01/24 01:03:52;;;;;;;10.10;7.07;;;;;;;;;;5050397;28;20190;-67
2021/01/24 01:06:17;;;;;;;12.47;7.87;;;;;;;;;;5049341;28;20181;-67
2021/01/24 01:08:42;;;;;;;15.23;8.93;;;;;;;;;;5049510;28;20176;-67
2021/01/24 01:11:08;;;;;;;13.17;8.77;;;;;;;;;;5051602;28;20181;-66
2021/01/24 01:13:33;;;;;;;20.70;10.27;;;;;;;;;;5051955;28;20316;-66
2021/01/24 01:15:58;;;;;;;16.17;10.27;;;;;;;;;;5050438;28;20188;-67
2021/01/24 01:18:23;;;;;;;16.90;11.83;;;;;;;;;;5048551;28;20173;-67
2021/01/24 01:20:48;;;;;;;19.50;10.77;;;;;;;;;;5049970;28;20204;-69
2021/01/24 01:23:14;;;;;;;15.50;8.63;;;;;;;;;;5048294;28;20291;-67
2021/01/24 01:25:39;;;;;;;13.83;9.00;;;;;;;;;;5053063;28;20550;-67
2021/01/24 01:28:04;;;;;;;18.37;9.03;;;;;;;;;;5050453;28;20181;-67
2021/01/24 01:30:30;;;;;;;14.63;7.40;;;;;;;;;;5048417;28;20227;-69
2021/01/24 01:32:55;;;;;;;11.83;8.20;;;;;;;;;;5049903;28;20197;-66
2021/01/24 01:35:20;;;;;;;9.83;7.13;;;;;;;;;;5049228;28;20185;-66
2021/01/24 01:37:45;;;;;;;10.33;8.03;;;;;;;;;;5050265;28;20181;-67
2021/01/24 01:40:10;;;;;;;11.80;7.70;;;;;;;;;;5047359;28;20181;-67
2021/01/24 01:42:36;;;;;;;11.57;7.17;;;;;;;;;;5049057;28;20181;-67
2021/01/24 01:45:01;;;;;;;10.40;7.30;;;;;;;;;;5051193;28;20209;-69
2021/01/24 01:47:26;;;;;;;10.90;6.63;;;;;;;;;;5050769;28;20169;-66
2021/01/24 01:49:55;;;;;;;11.73;6.43;;;;;;;;;;5047414;28;20256;-68
2021/01/24 01:52:22;;;;;;;9.53;6.40;;;;;;;;;;5042800;28;20182;-67
2021/01/24 01:54:48;;;;;;;9.27;6.30;;;;;;;;;;5039998;28;20248;-67
2021/01/24 01:57:13;;;;;;;11.43;6.90;;;;;;;;;;5047112;28;20177;-68
2021/01/24 01:59:39;;;;;;;14.37;6.80;;;;;;;;;;5044728;28;20182;-69
2021/01/24 02:02:10;;;;;;;10.43;6.13;;;;;;;;;;5044718;28;20295;-69
2021/01/24 02:04:43;;;;;;;11.30;5.87;;;;;;;;;;5048429;28;20583;-66
2021/01/24 02:07:13;;;;;;;10.77;5.67;;;;;;;;;;5047983;28;20177;-67
2021/01/24 02:10:13;;;;;;;10.63;5.60;;;;;;;;;;5047934;28;20173;-67
2021/01/24 02:12:45;;;;;;;11.13;6.10;;;;;;;;;;4980571;28;20223;-68
2021/01/24 02:15:18;;;;;;;9.43;6.00;;;;;;;;;;5035728;28;20593;-67
2021/01/24 02:17:45;;;;;;;10.83;5.87;;;;;;;;;;5053446;28;20185;-67
2021/01/24 02:20:33;;;;;;;13.23;6.00;;;;;;;;;;5047668;28;20184;-67
2021/01/24 02:23:00;;;;;;;8.60;5.80;;;;;;;;;;5035793;28;20221;-67
2021/01/24 02:25:47;;;;;;;9.40;5.40;;;;;;;;;;5053496;28;20181;-66
2021/01/24 02:28:31;;;;;;;13.03;6.43;;;;;;;;;;5048846;28;20566;-67
2021/01/24 02:30:57;;;;;;;9.20;5.37;;;;;;;;;;5050807;28;20593;-67
2021/01/24 02:33:24;;;;;;;8.80;5.83;;;;;;;;;;5052416;28;20201;-67
2021/01/24 02:35:59;;;;;;;10.37;5.87;;;;;;;;;;5051175;28;20182;-67
2021/01/24 02:38:24;;;;;;;10.73;6.37;;;;;;;;;;5053134;28;20212;-67
2021/01/24 02:40:50;;;;;;;11.13;5.53;;;;;;;;;;5053927;28;20237;-67
2021/01/24 02:43:16;;;;;;;10.70;5.20;;;;;;;;;;5053157;28;20193;-67
2021/01/24 02:45:42;;;;;;;11.50;5.40;;;;;;;;;;5049873;28;20554;-67
2021/01/24 02:48:08;;;;;;;8.60;5.33;;;;;;;;;;5049718;28;20182;-67
2021/01/24 02:50:33;;;;;;;11.33;5.40;;;;;;;;;;5047179;28;20185;-67
2021/01/24 02:52:59;;;;;;;8.13;5.37;;;;;;;;;;5053026;28;20213;-67
2021/01/24 02:55:25;;;;;;;9.70;5.70;;;;;;;;;;5034616;28;20182;-67
2021/01/24 02:57:51;;;;;;;11.97;5.73;;;;;;;;;;5053059;28;20181;-68
2021/01/24 03:00:16;;;;;;;7.73;5.07;;;;;;;;;;5053577;28;20285;-67
2021/01/24 03:02:42;;;;;;;10.17;5.30;;;;;;;;;;5048500;28;20659;-68
2021/01/24 03:05:08;;;;;;;9.47;4.83;;;;;;;;;;5037815;28;20656;-66
2021/01/24 03:07:33;;;;;;;13.13;5.63;;;;;;;;;;5053977;28;20178;-67
2021/01/24 03:09:58;;;;;;;9.63;5.90;;;;;;;;;;5049528;28;20574;-67
2021/01/24 03:12:26;;;;;;;10.20;4.80;;;;;;;;;;5054668;28;20188;-66
2021/01/24 03:14:52;;;;;;;6.77;4.63;;;;;;;;;;5049307;28;20182;-67
2021/01/24 03:17:18;;;;;;;9.13;4.60;;;;;;;;;;5056602;28;20235;-67
2021/01/24 03:19:44;;;;;;;7.87;4.83;;;;;;;;;;5042940;28;20201;-67
2021/01/24 03:22:10;;;;;;;10.37;4.87;;;;;;;;;;5055837;28;20201;-68
2021/01/24 03:24:36;;;;;;;9.10;4.50;;;;;;;;;;5056846;28;20254;-67
2021/01/24 03:27:01;;;;;;;9.87;5.23;;;;;;;;;;5053936;28;20231;-67
2021/01/24 03:29:27;;;;;;;6.53;4.40;;;;;;;;;;5054774;28;20682;-67
2021/01/24 03:31:52;;;;;;;6.27;4.57;;;;;;;;;;5051497;28;20176;-67
2021/01/24 03:34:20;;;;;;;8.73;5.03;;;;;;;;;;5060986;28;20237;-67
2021/01/24 03:36:46;;;;;;;6.10;4.00;;;;;;;;;;5035057;28;20666;-67
2021/01/24 03:39:11;;;;;;;7.40;4.33;;;;;;;;;;5052390;28;20177;-67
2021/01/24 03:41:36;;;;;;;6.70;4.20;;;;;;;;;;5052755;28;20638;-68
2021/01/24 03:44:02;;;;;;;6.77;4.00;;;;;;;;;;5050314;28;20209;-67
2021/01/24 03:46:27;;;;;;;8.83;4.30;;;;;;;;;;5047490;28;20169;-67
2021/01/24 03:48:52;;;;;;;8.50;4.17;;;;;;;;;;5056174;28;20515;-66
2021/01/24 03:51:17;;;;;;;8.63;4.97;;;;;;;;;;5051584;28;20192;-67
2021/01/24 03:53:42;;;;;;;6.93;4.40;;;;;;;;;;5054557;28;20564;-67
2021/01/24 03:56:08;;;;;;;10.57;4.70;;;;;;;;;;5047920;28;20185;-67
2021/01/24 03:58:33;;;;;;;6.97;4.40;;;;;;;;;;5048337;28;20719;-66
2021/01/24 04:00:58;;;;;;;8.63;3.50;;;;;;;;;;5049972;28;20210;-68
2021/01/24 04:03:23;;;;;;;6.17;3.80;;;;;;;;;;5052418;28;20196;-66
2021/01/24 04:05:48;;;;;;;8.37;2.90;;;;;;;;;;5050704;28;20715;-67
2021/01/24 04:08:14;;;;;;;4.40;2.87;;;;;;;;;;5051533;28;20193;-67
2021/01/24 04:10:39;;;;;;;7.33;2.57;;;;;;;;;;5047549;28;20794;-67
2021/01/24 04:13:04;;;;;;;3.27;2.33;;;;;;;;;;5053639;28;20201;-67
2021/01/24 04:15:29;;;;;;;3.03;2.50;;;;;;;;;;5044819;28;20178;-67
2021/01/24 04:17:55;;;;;;;3.30;1.63;;;;;;;;;;5049805;28;20268;-66
2021/01/24 04:20:20;;;;;;;2.07;1.77;;;;;;;;;;5054651;28;20181;-66
2021/01/24 04:22:45;;;;;;;3.57;1.60;;;;;;;;;;5055927;28;20213;-66
2021/01/24 04:25:13;;;;;;;2.13;1.17;;;;;;;;;;5046493;28;20181;-66
2021/01/24 04:27:38;;;;;;;1.93;1.33;;;;;;;;;;5033802;28;20608;-65
2021/01/24 04:30:03;;;;;;;2.13;1.20;;;;;;;;;;5045112;28;20209;-66
2021/01/24 04:32:28;;;;;;;1.00;0.90;;;;;;;;;;5052878;28;20228;-66
2021/01/24 04:34:54;;;;;;;1.20;0.80;;;;;;;;;;5048458;28;20173;-66
2021/01/24 04:37:19;;;;;;;2.37;1.00;;;;;;;;;;5049982;28;20559;-67
2021/01/24 04:39:44;;;;;;;2.73;0.87;;;;;;;;;;5054660;28;20185;-66
2021/01/24 04:42:09;;;;;;;1.40;1.00;;;;;;;;;;5049966;28;20624;-67
2021/01/24 04:44:35;;;;;;;1.13;0.80;;;;;;;;;;5049165;28;20660;-67
2021/01/24 04:47:00;;;;;;;1.27;0.70;;;;;;;;;;5050996;28;20178;-66
2021/01/24 04:49:26;;;;;;;1.37;0.70;;;;;;;;;;5049937;28;20177;-66
2021/01/24 04:51:51;;;;;;;2.23;1.03;;;;;;;;;;5053179;28;20272;-66
2021/01/24 04:54:16;;;;;;;1.77;0.87;;;;;;;;;;5050757;28;20193;-66
2021/01/24 04:56:42;;;;;;;1.17;0.63;;;;;;;;;;5049060;28;20557;-67
2021/01/24 04:59:07;;;;;;;2.73;0.70;;;;;;;;;;5048575;28;20197;-67
2021/01/24 05:01:35;;;;;;;2.10;0.87;;;;;;;;;;5052781;28;20205;-67
2021/01/24 05:04:00;;;;;;;3.27;0.80;;;;;;;;;;5045495;28;20193;-66
2021/01/24 05:06:26;;;;;;;1.13;0.70;;;;;;;;;;5052914;28;20169;-67
2021/01/24 05:08:51;;;;;;;1.13;0.83;;;;;;;;;;5051005;28;20256;-66
2021/01/24 05:11:16;;;;;;;3.33;1.00;;;;;;;;;;5050649;28;20532;-66
2021/01/24 05:13:41;;;;;;;1.10;0.80;;;;;;;;;;5050924;28;20209;-67
2021/01/24 05:16:07;;;;;;;1.93;1.10;;;;;;;;;;5049829;28;20185;-65
2021/01/24 05:18:33;;;;;;;2.37;0.80;;;;;;;;;;5052747;28;20181;-67
2021/01/24 05:20:58;;;;;;;1.37;0.73;;;;;;;;;;5052669;28;20205;-66
2021/01/24 05:23:24;;;;;;;3.80;2.07;;;;;;;;;;5046299;28;20296;-66
2021/01/24 05:25:49;;;;;;;2.23;0.93;;;;;;;;;;5049756;28;20264;-67
2021/01/24 05:28:17;;;;;;;1.60;0.60;;;;;;;;;;5049467;28;20182;-66
2021/01/24 05:30:43;;;;;;;6.63;1.00;;;;;;;;;;5051065;28;20669;-69
2021/01/24 05:33:08;;;;;;;3.60;0.97;;;;;;;;;;5051954;28;20194;-66
2021/01/24 05:35:44;;;;;;;1.50;1.20;;;;;;;;;;5050115;28;20184;-67
2021/01/24 05:38:09;;;;;;;1.37;0.80;;;;;;;;;;5048489;28;20181;-67
2021/01/24 05:40:37;;;;;;;4.67;1.03;;;;;;;;;;5051234;28;20346;-67
2021/01/24 05:43:02;;;;;;;2.03;0.97;;;;;;;;;;5051568;28;20204;-66
2021/01/24 05:45:36;;;;;;;1.40;1.10;;;;;;;;;;5049597;28;20567;-67
2021/01/24 05:48:04;;;;;;;1.57;0.90;;;;;;;;;;5049753;28;20173;-67
2021/01/24 05:50:29;;;;;;;2.30;1.33;;;;;;;;;;5043537;28;20647;-67
2021/01/24 05:52:54;;;;;;;1.60;1.00;;;;;;;;;;5047244;28;20201;-67
2021/01/24 05:55:32;;;;;;;2.73;0.90;;;;;;;;;;5032781;28;20181;-66
2021/01/24 05:57:58;;;;;;;1.23;1.00;;;;;;;;;;5045240;28;20254;-66
2021/01/24 06:00:24;;;;;;;1.90;0.90;;;;;;;;;;5049401;28;20791;-66
2021/01/24 06:02:49;;;;;;;7.07;1.10;;;;;;;;;;5042658;28;20577;-67
2021/01/24 06:05:14;;;;;;;1.50;1.00;;;;;;;;;;5049159;28;20189;-66
2021/01/24 06:07:39;;;;;;;0.87;0.80;;;;;;;;;;5050158;28;20303;-67
2021/01/24 06:10:05;;;;;;;4.33;1.23;;;;;;;;;;5049243;28;20260;-67
2021/01/24 06:12:30;;;;;;;1.77;1.03;;;;;;;;;;5045151;28;20189;-67
2021/01/24 06:14:55;;;;;;;2.13;1.07;;;;;;;;;;5024955;28;20186;-69
2021/01/24 06:17:33;;;;;;;1.20;0.93;;;;;;;;;;5049462;28;20650;-66
2021/01/24 06:19:59;;;;;;;3.07;1.00;;;;;;;;;;5046782;28;20657;-67
2021/01/24 06:22:26;;;;;;;1.03;0.93;;;;;;;;;;5051304;28;20197;-67
2021/01/24 06:24:54;;;;;;;1.70;0.80;;;;;;;;;;5049963;28;20572;-67
2021/01/24 06:27:23;;;;;;;1.57;1.00;;;;;;;;;;5049806;28;20188;-67
2021/01/24 06:29:51;;;;;;;2.07;1.07;;;;;;;;;;5047246;28;20180;-66
2021/01/24 06:32:30;;;;;;;1.67;1.10;;;;;;;;;;5048881;28;20858;-67
2021/01/24 06:35:12;;;;;;;4.93;1.40;;;;;;;;;;5047433;28;20246;-67
2021/01/24 06:37:38;;;;;;;1.10;0.90;;;;;;;;;;5044294;28;20308;-67
2021/01/24 06:40:03;;;;;;;3.73;1.13;;;;;;;;;;5032761;28;20633;-66
2021/01/24 06:42:47;;;;;;;2.03;1.30;;;;;;;;;;5049228;28;20209;-66
2021/01/24 06:45:21;;;;;;;4.60;1.27;;;;;;;;;;5046947;28;20173;-66
2021/01/24 06:47:46;;;;;;;1.37;0.90;;;;;;;;;;5050044;28;20181;-69
2021/01/24 06:50:30;;;;;;;1.60;1.10;;;;;;;;;;5049194;28;20178;-69
2021/01/24 06:53:06;;;;;;;1.70;1.00;;;;;;;;;;5041759;28;20204;-67
2021/01/24 06:55:31;;;;;;;1.20;1.10;;;;;;;;;;5054284;28;20256;-67
2021/01/24 06:57:56;;;;;;;2.03;1.43;;;;;;;;;;5052658;28;20202;-67
2021/01/24 07:00:22;;;;;;;4.97;1.30;;;;;;;;;;5048338;28;20182;-66
2021/01/24 07:02:48;;;;;;;3.77;1.90;;;;;;;;;;5047124;28;20201;-67
2021/01/24 07:05:17;;;;;;;2.63;1.07;;;;;;;;;;5047770;28;20185;-66
2021/01/24 07:07:43;;;;;;;1.70;1.10;;;;;;;;;;5053290;28;20193;-67
2021/01/24 07:10:09;;;;;;;5.40;2.17;;;;;;;;;;5051957;28;20182;-67
2021/01/24 07:12:39;;;;;;;3.40;2.30;;;;;;;;;;5053264;28;20506;-67
2021/01/24 07:15:05;;;;;;;6.27;2.50;;;;;;;;;;5035278;28;20551;-66
2021/01/24 07:17:31;;;;;;;4.70;2.90;;;;;;;;;;5052249;28;20190;-67
2021/01/24 07:19:56;;;;;;;5.70;2.90;;;;;;;;;;5053604;28;20182;-67
2021/01/24 07:22:22;;;;;;;5.20;3.37;;;;;;;;;;5050917;28;20220;-66
2021/01/24 07:24:48;;;;;;;4.17;3.00;;;;;;;;;;5053214;28;20701;-67
2021/01/24 07:27:14;;;;;;;4.63;3.33;;;;;;;;;;5051286;28;20221;-66
2021/01/24 07:29:39;;;;;;;5.70;3.53;;;;;;;;;;5051636;28;20192;-67
2021/01/24 07:32:17;;;;;;;5.10;3.00;;;;;;;;;;5018565;28;20680;-67
2021/01/24 07:34:43;;;;;;;7.07;4.03;;;;;;;;;;5052061;28;20704;-67
2021/01/24 07:37:09;;;;;;;7.43;3.17;;;;;;;;;;5052237;28;20190;-66
2021/01/24 07:39:34;;;;;;;7.03;3.77;;;;;;;;;;5054707;28;20232;-66
2021/01/24 07:42:00;;;;;;;5.80;3.63;;;;;;;;;;5055139;28;20617;-67
2021/01/24 07:44:25;;;;;;;5.20;3.37;;;;;;;;;;5054274;28;20190;-66
2021/01/24 07:46:51;;;;;;;9.37;3.90;;;;;;;;;;5053400;28;20618;-67
2021/01/24 07:49:16;;;;;;;4.90;3.17;;;;;;;;;;5054531;28;20665;-67
2021/01/24 07:51:42;;;;;;;3.70;2.80;;;;;;;;;;5048269;28;20188;-67
2021/01/24 07:54:07;;;;;;;3.17;2.17;;;;;;;;;;5035081;28;20201;-66
2021/01/24 07:56:33;;;;;;;3.00;1.83;;;;;;;;;;5052656;28;20200;-66
2021/01/24 07:58:58;;;;;;;6.87;1.90;;;;;;;;;;5052138;28;20564;-66
2021/01/24 08:01:24;;;;;;;2.63;1.33;;;;;;;;;;5051050;28;20266;-67
2021/01/24 08:03:49;;;;;;;1.97;1.30;;;;;;;;;;5047615;28;20559;-66
2021/01/24 08:06:14;;;;;;;2.67;1.30;;;;;;;;;;5051414;28;20324;-65
2021/01/24 08:08:43;;;;;;;2.10;1.20;;;;;;;;;;5048733;28;20173;-66
2021/01/24 08:11:08;;;;;;;2.57;1.13;;;;;;;;;;5052175;28;20256;-66
2021/01/24 08:13:34;;;;;;;1.97;1.13;;;;;;;;;;5049775;28;20384;-69
2021/01/24 08:16:00;;;;;;;3.97;1.30;;;;;;;;;;5047978;28;20648;-66
2021/01/24 08:18:26;;;;;;;2.43;0.90;;;;;;;;;;5046916;28;20188;-67
2021/01/24 08:20:52;;;;;;;4.10;1.20;;;;;;;;;;5047566;28;20206;-66
2021/01/24 08:23:17;;;;;;;4.87;1.20;;;;;;;;;;5053771;28;20262;-67
2021/01/24 08:25:42;;;;;;;4.70;1.50;;;;;;;;;;5051352;28;20185;-67
2021/01/24 08:28:08;;;;;;;2.97;1.70;;;;;;;;;;5052849;28;20184;-67
2021/01/24 08:30:39;;;;;;;3.87;1.30;;;;;;;;;;5050436;28;21589;-67
2021/01/24 08:33:07;;;;;;;4.43;1.37;;;;;;;;;;5050938;28;20603;-66
2021/01/24 08:35:34;;;;;;;3.57;1.60;;;;;;;;;;5050275;28;20178;-66
2021/01/24 08:37:59;;;;;;;3.13;1.47;;;;;;;;;;5055071;28;20178;-66
2021/01/24 08:40:34;;;;;;;3.50;1.17;;;;;;;;;;5048847;28;20658;-66
2021/01/24 08:43:00;;;;;;;5.53;1.80;;;;;;;;;;5051230;28;20276;-66
2021/01/24 08:45:27;;;;;;;3.23;1.40;;;;;;;;;;5046073;28;20185;-66
2021/01/24 08:47:53;;;;;;;4.43;1.20;;;;;;;;;;5033397;28;20264;-65
2021/01/24 08:50:18;;;;;;;5.13;1.70;;;;;;;;;;5043146;28;20189;-66
2021/01/24 08:52:44;;;;;;;1.53;1.10;;;;;;;;;;5048205;28;20173;-66
2021/01/24 08:55:09;;;;;;;3.50;1.33;;;;;;;;;;5051096;28;20177;-69
2021/01/24 08:57:34;;;;;;;5.13;1.10;;;;;;;;;;5049261;28;20233;-67
2021/01/24 09:00:01;;;;;;;3.47;1.40;;;;;;;;;;5046920;28;20562;-69
2021/01/24 09:02:27;;;;;;;2.43;1.13;;;;;;;;;;5044261;28;20288;-66
2021/01/24 09:04:52;;;;;;;2.60;1.43;;;;;;;;;;5052268;28;20464;-67
2021/01/24 09:07:17;;;;;;;2.70;1.40;;;;;;;;;;5050015;28;20176;-68
2021/01/24 09:09:46;;;;;;;1.57;1.20;;;;;;;;;;5051597;28;20173;-68
2021/01/24 09:12:13;;;;;;;2.70;1.47;;;;;;;;;;5046894;28;20208;-67
2021/01/24 09:14:39;;;;;;;6.27;1.60;;;;;;;;;;5046566;28;20193;-67
2021/01/24 09:17:07;;;;;;;3.20;1.63;;;;;;;;;;5049349;28;20238;-68
2021/01/24 09:19:33;;;;;;;4.37;2.67;;;;;;;;;;5047147;28;20180;-67
2021/01/24 09:21:58;;;;;;;3.47;1.50;;;;;;;;;;5047099;28;20262;-67
2021/01/24 09:24:23;;;;;;;2.47;1.60;;;;;;;;;;5050937;28;20288;-67
2021/01/24 09:26:48;;;;;;;6.57;3.47;;;;;;;;;;5048342;28;20268;-67
2021/01/24 09:29:14;;;;;;;4.17;2.30;;;;;;;;;;5050322;28;20192;-67
2021/01/24 09:31:39;;;;;;;3.77;2.20;;;;;;;;;;5050068;28;20193;-67
2021/01/24 09:34:04;;;;;;;4.50;1.90;;;;;;;;;;5049389;28;20208;-67
2021/01/24 09:36:29;;;;;;;3.87;2.70;;;;;;;;;;5049369;28;20185;-67
2021/01/24 09:38:55;;;;;;;4.27;2.30;;;;;;;;;;5051016;28;20192;-68
2021/01/24 09:41:20;;;;;;;4.43;2.90;;;;;;;;;;5049749;28;20636;-69
2021/01/24 09:43:45;;;;;;;4.03;2.37;;;;;;;;;;5049424;28;20206;-69
2021/01/24 09:46:11;;;;;;;6.77;2.30;;;;;;;;;;5049768;28;20213;-69
2021/01/24 09:48:36;;;;;;;3.40;2.07;;;;;;;;;;5051628;28;20173;-69
2021/01/24 09:51:01;;;;;;;5.97;2.27;;;;;;;;;;5047731;28;20219;-68
2021/01/24 09:53:26;;;;;;;4.67;2.50;;;;;;;;;;5049159;28;20598;-66
2021/01/24 09:55:51;;;;;;;5.93;2.23;;;;;;;;;;5055070;28;20655;-69
2021/01/24 09:58:16;;;;;;;4.63;1.97;;;;;;;;;;5050181;28;20213;-66
2021/01/24 10:00:42;;;;;;;2.97;1.57;;;;;;;;;;5049988;28;20209;-67
2021/01/24 10:03:09;;;;;;;3.70;2.03;;;;;;;;;;5048674;28;20675;-67
2021/01/24 10:05:34;;;;;;;2.07;1.87;;;;;;;;;;5049953;28;20281;-66
2021/01/24 10:07:59;;;;;;;4.63;2.10;;;;;;;;;;5050130;28;20696;-66
2021/01/24 10:10:24;;;;;;;5.93;2.03;;;;;;;;;;5049831;28;20174;-67
2021/01/24 10:12:49;;;;;;;3.27;1.80;;;;;;;;;;5050093;28;20706;-66
2021/01/24 10:15:15;;;;;;;3.37;2.17;;;;;;;;;;5050203;28;20260;-66
2021/01/24 10:17:40;;;;;;;5.40;2.40;;;;;;;;;;5048488;28;20683;-67
2021/01/24 10:20:05;;;;;;;5.97;3.10;;;;;;;;;;5050553;28;20188;-67
2021/01/24 10:22:30;;;;;;;3.50;2.40;;;;;;;;;;5048336;28;20213;-66
2021/01/24 10:24:56;;;;;;;5.77;2.50;;;;;;;;;;5051524;28;20179;-67
2021/01/24 10:27:21;;;;;;;2.85;2.28;;;;;;;;;;5033981;28;20666;-66
2021/01/24 10:29:46;;;;;;;6.90;2.57;;;;;;;;;;5052200;28;20183;-66
2021/01/24 10:32:11;;;;;;;3.73;2.90;;;;;;;;;;5048438;28;20189;-66
2021/01/24 10:34:36;;;;;;;5.83;3.30;;;;;;;;;;5050004;28;20332;-67
2021/01/24 10:37:01;;;;;;;7.93;3.63;;;;;;;;;;5052682;28;20857;-67
2021/01/24 10:39:27;;;;;;;6.10;3.77;;;;;;;;;;5046824;28;20181;-69
2021/01/24 10:41:52;;;;;;;13.00;5.27;;;;;;;;;;5049164;28;20220;-67
2021/01/24 10:44:17;;;;;;;5.83;3.83;;;;;;;;;;5052737;28;20236;-67
2021/01/24 10:46:42;;;;;;;6.83;3.97;;;;;;;;;;5038058;28;20176;-67
2021/01/24 10:49:07;;;;;;;6.57;3.80;;;;;;;;;;5057414;28;20189;-67
2021/01/24 10:51:33;;;;;;;5.60;3.80;;;;;;;;;;5051921;28;20197;-66
2021/01/24 10:53:58;;;;;;;8.57;4.80;;;;;;;;;;5052094;28;20227;-66
2021/01/24 10:56:23;;;;;;;8.50;3.80;;;;;;;;;;5052989;28;20235;-67
2021/01/24 10:58:48;;;;;;;7.83;3.80;;;;;;;;;;5051607;28;20208;-67
2021/01/24 11:01:13;;;;;;;7.83;3.73;;;;;;;;;;5053916;28;20213;-67
2021/01/24 11:03:39;;;;;;;7.53;3.87;;;;;;;;;;5051575;28;20190;-68
2021/01/24 11:06:04;;;;;;;6.43;4.20;;;;;;;;;;5053083;28;20219;-67
2021/01/24 11:08:29;;;;;;;5.57;3.60;;;;;;;;;;5039167;28;20236;-67
2021/01/24 11:10:54;;;;;;;8.10;4.33;;;;;;;;;;5048942;28;20177;-68
2021/01/24 11:13:19;;;;;;;7.50;3.80;;;;;;;;;;5051109;28;20209;-67
2021/01/24 11:15:45;;;;;;;7.77;3.80;;;;;;;;;;5047226;28;20681;-68
2021/01/24 11:18:10;;;;;;;12.00;5.07;;;;;;;;;;5045346;28;20197;-67
2021/01/24 11:20:35;;;;;;;7.97;3.80;;;;;;;;;;5032181;28;20185;-67
2021/01/24 11:23:00;;;;;;;11.17;4.13;;;;;;;;;;5047111;28;20223;-67
2021/01/24 11:25:26;;;;;;;5.70;3.67;;;;;;;;;;5043649;28;20169;-67
2021/01/24 11:27:51;;;;;;;5.33;3.40;;;;;;;;;;5055338;28;20558;-67
2021/01/24 11:30:16;;;;;;;5.90;3.97;;;;;;;;;;5050058;28;20188;-67
2021/01/24 11:32:41;;;;;;;7.87;4.53;;;;;;;;;;5051651;28;20212;-67
2021/01/24 11:35:07;;;;;;;5.97;2.67;;;;;;;;;;5052929;28;20256;-66
2021/01/24 11:37:33;;;;;;;6.47;3.40;;;;;;;;;;5051921;28;20181;-67
2021/01/24 11:39:58;;;;;;;4.55;3.05;;;;;;;;;;5054802;28;20181;-68
2021/01/24 11:42:24;;;;;;;4.60;3.00;;;;;;;;;;5044094;28;20205;-67
2021/01/24 11:44:50;;;;;;;4.77;3.00;;;;;;;;;;5049956;28;20213;-66
2021/01/24 11:47:15;;;;;;;4.60;3.10;;;;;;;;;;5048837;28;20205;-68
2021/01/24 11:49:40;;;;;;;4.73;3.00;;;;;;;;;;5049743;28;20269;-66
2021/01/24 11:52:05;;;;;;;4.70;2.50;;;;;;;;;;5051843;28;20224;-67
2021/01/24 11:54:30;;;;;;;4.73;2.77;;;;;;;;;;5044590;28;20258;-67
2021/01/24 11:56:55;;;;;;;6.30;2.67;;;;;;;;;;5051000;28;20535;-68
2021/01/24 11:59:21;;;;;;;5.23;2.40;;;;;;;;;;5051103;28;20190;-68
2021/01/24 12:01:46;;;;;;;4.20;2.27;;;;;;;;;;5055437;28;20259;-70
2021/01/24 12:04:11;;;;;;;4.67;2.50;;;;;;;;;;5058104;28;20200;-67
2021/01/24 12:06:36;;;;;;;5.37;3.47;;;;;;;;;;5051627;28;20210;-68
2021/01/24 12:09:01;;;;;;;10.23;2.87;;;;;;;;;;5055376;28;20655;-67
2021/01/24 12:11:27;;;;;;;4.30;3.90;;;;;;;;;;5048244;28;20181;-68
2021/01/24 12:13:52;;;;;;;7.20;3.00;;;;;;;;;;5054265;28;20268;-67
2021/01/24 12:16:17;;;;;;;9.40;2.77;;;;;;;;;;5052042;28;20729;-67
2021/01/24 12:18:42;;;;;;;4.53;2.30;;;;;;;;;;5050986;28;20192;-67
2021/01/24 12:21:07;;;;;;;4.13;2.77;;;;;;;;;;5049490;28;20303;-67
2021/01/24 12:23:33;;;;;;;4.53;2.40;;;;;;;;;;5053825;28;20210;-68
2021/01/24 12:25:58;;;;;;;4.83;2.63;;;;;;;;;;5052654;28;20549;-68
2021/01/24 12:28:23;;;;;;;4.03;2.93;;;;;;;;;;5054641;28;20166;-67
2021/01/24 12:30:48;;;;;;;4.20;3.10;;;;;;;;;;5051553;28;20178;-66
2021/01/24 12:33:14;;;;;;;6.00;2.60;;;;;;;;;;5052555;28;20689;-69
2021/01/24 12:35:39;;;;;;;5.00;2.90;;;;;;;;;;5051044;28;20177;-67
2021/01/24 12:38:05;;;;;;;4.63;2.63;;;;;;;;;;5057957;28;20230;-67
2021/01/24 12:40:30;;;;;;;5.93;2.60;;;;;;;;;;5051207;28;20620;-67
2021/01/24 12:42:55;;;;;;;3.77;2.60;;;;;;;;;;5051090;28;20201;-67
2021/01/24 12:45:20;;;;;;;4.73;2.53;;;;;;;;;;5052373;28;20188;-67
2021/01/24 12:47:45;;;;;;;4.63;2.50;;;;;;;;;;5051793;28;20241;-67
2021/01/24 12:50:10;;;;;;;5.20;2.80;;;;;;;;;;5052044;28;20173;-66
2021/01/24 12:52:36;;;;;;;7.77;2.93;;;;;;;;;;5049953;28;20174;-66
2021/01/24 12:55:01;;;;;;;7.83;2.93;;;;;;;;;;5054478;28;20193;-67
2021/01/24 12:57:26;;;;;;;4.33;2.57;;;;;;;;;;5050462;28;20217;-69
2021/01/24 12:59:51;;;;;;;6.60;2.70;;;;;;;;;;5052281;28;20173;-67
2021/01/24 13:02:17;;;;;;;7.13;2.93;;;;;;;;;;5056964;28;20200;-67
2021/01/24 13:04:42;;;;;;;4.80;2.50;;;;;;;;;;5052978;28;20706;-67
2021/01/24 13:07:09;;;;;;;3.47;2.67;;;;;;;;;;5035106;28;20176;-67
2021/01/24 13:09:38;;;;;;;5.40;2.50;;;;;;;;;;5052175;28;20173;-67
2021/01/24 13:12:04;;;;;;;5.73;2.60;;;;;;;;;;5051856;28;20185;-68
2021/01/24 13:14:29;;;;;;;4.27;3.00;;;;;;;;;;5055001;28;20204;-67
2021/01/24 13:16:55;;;;;;;4.20;2.20;;;;;;;;;;5052390;28;20174;-67
2021/01/24 13:19:20;;;;;;;6.33;2.30;;;;;;;;;;5056929;28;20181;-68
2021/01/24 13:21:45;;;;;;;5.33;2.57;;;;;;;;;;5053211;28;20193;-68
2021/01/24 13:24:10;;;;;;;5.53;2.47;;;;;;;;;;5053693;28;20221;-68
2021/01/24 13:26:35;;;;;;;3.10;2.33;;;;;;;;;;5051354;28;20181;-68
2021/01/24 13:29:00;;;;;;;4.80;3.90;;;;;;;;;;5053940;28;20178;-68
2021/01/24 13:31:26;;;;;;;3.80;3.40;;;;;;;;;;5049561;28;20670;-68
2021/01/24 13:33:51;;;;;;;6.33;2.57;;;;;;;;;;5048512;28;20258;-68
2021/01/24 13:36:16;;;;;;;5.83;2.77;;;;;;;;;;5050591;28;20174;-68
2021/01/24 13:38:42;;;;;;;4.93;3.10;;;;;;;;;;5050439;28;20241;-68
2021/01/24 13:41:07;;;;;;;5.43;3.30;;;;;;;;;;5052439;28;20211;-68
2021/01/24 13:43:32;;;;;;;6.63;3.20;;;;;;;;;;5051940;28;20197;-67
2021/01/24 13:45:58;;;;;;;5.30;3.33;;;;;;;;;;5034663;28;20174;-68
2021/01/24 13:48:23;;;;;;;7.60;3.90;;;;;;;;;;5053641;28;20181;-68
2021/01/24 13:50:48;;;;;;;5.97;3.33;;;;;;;;;;5051669;28;20172;-68
2021/01/24 13:53:13;;;;;;;9.27;3.80;;;;;;;;;;5053293;28;20278;-67
2021/01/24 13:55:39;;;;;;;5.93;3.33;;;;;;;;;;5049563;28;20220;-67
2021/01/24 13:58:04;;;;;;;7.20;3.57;;;;;;;;;;5053752;28;20314;-68
2021/01/24 14:00:29;;;;;;;4.97;3.60;;;;;;;;;;5046164;28;20185;-67
2021/01/24 14:02:54;;;;;;;6.13;3.30;;;;;;;;;;5050835;28;20259;-68
2021/01/24 14:05:19;;;;;;;4.93;3.40;;;;;;;;;;5048044;28;20184;-68
2021/01/24 14:07:44;;;;;;;8.43;4.10;;;;;;;;;;5050314;28;20189;-67
2021/01/24 14:10:10;;;;;;;9.47;4.33;;;;;;;;;;5049110;28;20190;-68
2021/01/24 14:12:35;;;;;;;7.27;4.07;;;;;;;;;;5049941;28;20340;-68
2021/01/24 14:15:01;;;;;;;6.87;3.70;;;;;;;;;;5047462;28;20209;-67
2021/01/24 14:17:26;;;;;;;7.23;4.20;;;;;;;;;;5050313;28;20204;-68
2021/01/24 14:19:51;;;;;;;5.50;3.80;;;;;;;;;;5048371;28;20650;-68
2021/01/24 14:22:16;;;;;;;6.07;4.53;;;;;;;;;;5054126;28;20201;-67
2021/01/24 14:24:42;;;;;;;6.88;4.30;;;;;;;;;;5054353;28;20235;-68
2021/01/24 14:27:07;;;;;;;13.03;5.23;;;;;;;;;;5053166;28;20546;-68
2021/01/24 14:29:33;;;;;;;7.10;4.20;;;;;;;;;;5055626;28;20191;-68
2021/01/24 14:31:58;;;;;;;9.37;5.07;;;;;;;;;;5053460;28;20177;-69
2021/01/24 14:34:23;;;;;;;6.03;4.03;;;;;;;;;;5052025;28;20205;-68